Winamac, IN (46996)

4:19 AM EDT on July 31, 2016 (GMT -0400)
Medaryville, IN 47957 | | Change Station

Elev 712 ft 41.11 °N, 86.84 °W | Updated 22 seconds ago

Mist
Mist
64.6 °F
Feels Like 64.6 °F
N
1.8
Wind Variable Wind from NE
Gusts 2.5 mph

Today
High -- | Low -- °F
--% Chance of Precip.
Yesterday
High -- | Low -- °F
Precip. -- in
Pressure 29.97 in
Visibility 3.0 miles
Clouds
Dew Point 64 °F
Humidity 98%
Rainfall 0.00 in
Snow Depth Not available.
6:41 AM 9:03 PM
Waning Crescent, 8% visible
METAR KRCR 310755Z AUTO 00000KT 3SM BR 20/20 A2997 RMK AO2 SKY OBSCURED
Pressure 29.97 in
Visibility 3.0 miles
Clouds
Dew Point 64 °F
Humidity 98%
Rainfall 0.00 in
Snow Depth Not available.
6:41 AM 9:03 PM
Waning Crescent, 8% visible
METAR KRCR 310755Z AUTO 00000KT 3SM BR 20/20 A2997 RMK AO2 SKY OBSCURED

10-Day Weather Forecast

Almanac

Astronomy

Jul. 31, 2016 Rise Set
Actual Time
Civil Twilight
Nautical Twilight
Astronomical Twilight
Moon
Length of Visible Light
Length of Day
Tomorrow will be .
, % of the Moon is Illuminated

Today's Extremes

State Highs State Lows

Community

WunderPhotos

Upload Photos

1,928,768 photos uploaded!

WunderBlog® & News

Nearby

Air Quality

  Air Quality AQ Index Pollutant
Not available.

Snow Depth

Station Depth Elevation

Earthquake Activity

City Distance Mag. Time & Date
Minimum magnitude displayed is 2.5.

Coastal Water Temperatures

Place Temperature

Stations

Nearby Weather Stations

Station Location Temp. Windchill Dew Point Humidity Wind Precip. Elev Updated Type
                   

Watches & Warnings

There are currently no watches in effect.